Time;durP1;ratioP1;P1;durP2;ratioP2;P2;SDS_P1;SDS_P2;PMS_P1;PMS_P2;Temp;Humidity;BMP_temperature;BMP_pressure;BME280_temperature;BME280_humidity;BME280_pressure;Samples;Min_cycle;Max_cycle;Signal;HPM_P1;HPM_P2
2022/02/02 00:01:03;;;;;;;4.47;1.70;;;;;;;1.82;100.00;95069.94;4991304;28;20045;-73
2022/02/02 00:03:29;;;;;;;3.72;1.70;;;;;;;1.83;100.00;95073.34;4991954;28;20397;-73
2022/02/02 00:06:08;;;;;;;4.43;1.90;;;;;;;1.96;100.00;95061.97;4984819;28;20100;-73
2022/02/02 00:08:47;;;;;;;3.00;1.63;;;;;;;1.91;100.00;95060.03;4992017;28;20050;-74
2022/02/02 00:13:57;;;;;;;3.03;1.60;;;;;;;2.04;100.00;95053.81;4985516;28;20042;-73
2022/02/02 00:21:51;;;;;;;2.78;1.27;;;;;;;2.14;100.00;95042.88;4990647;28;20049;-73
2022/02/02 00:24:35;;;;;;;2.95;1.77;;;;;;;2.09;100.00;95040.97;4991029;28;20104;-73
2022/02/02 00:27:06;;;;;;;3.47;1.63;;;;;;;2.22;100.00;95053.69;4990120;28;20046;-73
2022/02/02 00:29:46;;;;;;;3.33;1.85;;;;;;;2.10;100.00;95073.69;4991344;28;20039;-73
2022/02/02 00:35:08;;;;;;;5.07;1.80;;;;;;;2.12;100.00;95053.50;4962399;28;20081;-73
2022/02/02 00:37:33;;;;;;;4.20;1.77;;;;;;;2.02;100.00;95055.88;4985308;28;20042;-73
2022/02/02 00:39:59;;;;;;;4.03;1.92;;;;;;;2.00;100.00;95073.47;4980625;28;20141;-73
2022/02/02 00:42:34;;;;;;;3.22;1.90;;;;;;;2.08;100.00;95086.09;4990058;28;20042;-74
2022/02/02 00:45:01;;;;;;;3.00;1.65;;;;;;;2.09;100.00;95092.88;4990832;28;20038;-73
2022/02/02 00:47:36;;;;;;;4.82;2.28;;;;;;;2.11;100.00;95082.28;4985657;28;20061;-73
2022/02/02 00:50:08;;;;;;;3.28;1.90;;;;;;;2.07;100.00;95063.78;4981130;28;20042;-73
2022/02/02 00:52:34;;;;;;;5.57;2.10;;;;;;;2.10;100.00;95052.94;4994351;28;20567;-73
2022/02/02 00:54:59;;;;;;;4.38;2.20;;;;;;;2.04;100.00;95079.78;4998118;28;20050;-73
2022/02/02 00:57:28;;;;;;;7.05;2.45;;;;;;;1.95;100.00;95081.16;4990375;28;20044;-73
2022/02/02 00:59:55;;;;;;;5.45;2.55;;;;;;;1.80;100.00;95073.81;4989023;28;20069;-73
2022/02/02 01:02:20;;;;;;;6.72;2.90;;;;;;;1.76;100.00;95086.44;4989171;28;20069;-73
2022/02/02 01:04:47;;;;;;;5.07;2.60;;;;;;;1.71;100.00;95070.72;4989937;28;20062;-73
2022/02/02 01:10:04;;;;;;;5.50;2.63;;;;;;;1.82;100.00;95062.16;4989804;28;20042;-73
2022/02/02 01:17:48;;;;;;;8.77;2.70;;;;;;;1.81;100.00;95050.22;4990425;28;20424;-73
2022/02/02 01:20:32;;;;;;;6.70;2.50;;;;;;;1.83;100.00;95048.19;4989506;28;20073;-73
2022/02/02 01:28:28;;;;;;;5.13;2.35;;;;;;;1.98;100.00;95070.31;4989539;28;20125;-73
2022/02/02 01:30:54;;;;;;;3.08;2.20;;;;;;;1.97;100.00;95055.75;4990074;28;20046;-73
2022/02/02 01:33:20;;;;;;;4.57;2.40;;;;;;;2.01;100.00;95054.28;4994678;28;20046;-73
2022/02/02 01:35:46;;;;;;;3.08;1.98;;;;;;;2.06;100.00;95069.97;4996258;28;20717;-73
2022/02/02 01:38:12;;;;;;;4.22;2.10;;;;;;;2.08;100.00;95049.75;4989987;28;20065;-73
2022/02/02 01:40:46;;;;;;;4.35;2.10;;;;;;;2.00;100.00;95057.91;4991240;28;20042;-73
2022/02/02 01:43:17;;;;;;;4.00;2.03;;;;;;;2.06;100.00;95052.59;5001283;28;20038;-73
2022/02/02 01:45:48;;;;;;;4.35;1.88;;;;;;;2.03;100.00;95041.88;4989580;28;20073;-74
2022/02/02 01:48:28;;;;;;;3.42;1.70;;;;;;;2.05;100.00;95029.47;4989261;28;20058;-73
2022/02/02 01:56:10;;;;;;;2.65;1.50;;;;;;;1.99;100.00;95025.19;4988804;28;20042;-73
2022/02/02 02:01:11;;;;;;;1.75;1.23;;;;;;;2.12;100.00;95017.16;4988457;28;20497;-73
2022/02/02 02:03:37;;;;;;;1.95;1.17;;;;;;;2.15;100.00;94998.50;4989145;28;20053;-73
2022/02/02 02:06:04;;;;;;;2.17;1.52;;;;;;;2.05;100.00;95013.88;4988641;28;20041;-73
2022/02/02 02:08:30;;;;;;;2.88;1.40;;;;;;;1.97;100.00;95019.41;4987886;28;20511;-73
2022/02/02 02:10:57;;;;;;;4.35;1.65;;;;;;;2.05;100.00;95013.88;4988564;28;20034;-73
2022/02/02 02:16:14;;;;;;;4.22;1.60;;;;;;;2.10;100.00;95006.22;4996196;28;20050;-74
2022/02/02 02:18:40;;;;;;;3.88;1.70;;;;;;;1.96;100.00;95021.22;5004633;28;20454;-74
2022/02/02 02:21:10;;;;;;;1.70;1.20;;;;;;;2.03;100.00;95005.53;4987863;28;20043;-74
2022/02/02 02:23:36;;;;;;;1.45;1.08;;;;;;;2.17;100.00;95001.69;4989108;28;20038;-73
2022/02/02 02:26:02;;;;;;;2.20;1.48;;;;;;;2.06;100.00;94999.91;4988980;28;20049;-73
2022/02/02 02:28:40;;;;;;;1.80;1.30;;;;;;;2.14;100.00;95009.94;4988807;28;20125;-73
2022/02/02 02:31:24;;;;;;;3.72;1.45;;;;;;;2.09;100.00;95009.81;4977625;28;20034;-73
2022/02/02 02:57:44;;;;;;;4.07;2.25;;;;;;;2.36;100.00;95024.91;4997584;28;20088;-73
2022/02/02 03:30:05;;;;;;;4.05;1.98;;;;;;;2.31;100.00;95032.59;4983552;28;20359;-73
2022/02/02 03:59:01;;;;;;;5.88;2.28;;;;;;;2.29;100.00;95035.41;4991848;28;20031;-73
2022/02/02 04:04:52;;;;;;;8.52;2.10;;;;;;;2.31;100.00;95043.75;4992029;28;19925;-74
2022/02/02 04:09:48;;;;;;;7.00;2.20;;;;;;;2.38;100.00;95062.59;4969362;28;20047;-73
2022/02/02 05:06:02;;;;;;;6.28;2.10;;;;;;;2.28;100.00;95084.97;4983350;28;20037;-73
2022/02/02 05:19:12;;;;;;;5.10;1.50;;;;;;;2.36;100.00;95098.41;4996208;28;20221;-73
2022/02/02 05:53:21;;;;;;;4.15;1.73;;;;;;;2.47;100.00;95129.78;4989760;28;20070;-74
2022/02/02 05:55:48;;;;;;;3.00;1.60;;;;;;;2.48;100.00;95132.16;4989592;28;20039;-73
2022/02/02 05:58:15;;;;;;;4.25;1.45;;;;;;;2.44;100.00;95131.03;4998855;28;20047;-73
2022/02/02 06:00:41;;;;;;;4.15;1.75;;;;;;;2.43;100.00;95130.25;4996389;28;20044;-73
2022/02/02 06:03:13;;;;;;;3.53;1.90;;;;;;;2.46;100.00;95118.63;4989710;28;20091;-73
2022/02/02 06:05:41;;;;;;;5.05;2.15;;;;;;;2.40;100.00;95119.53;4989001;28;20070;-73
2022/02/02 06:08:12;;;;;;;7.15;2.63;;;;;;;2.32;100.00;95123.25;4998849;28;20046;-73
2022/02/02 06:10:42;;;;;;;5.50;2.47;;;;;;;2.32;100.00;95143.22;4988090;28;20432;-74
2022/02/02 06:13:09;;;;;;;10.60;2.67;;;;;;;2.53;100.00;95139.25;4989370;28;20050;-73
2022/02/02 06:15:35;;;;;;;6.15;2.55;;;;;;;2.52;100.00;95128.09;4989358;28;20122;-73
2022/02/02 06:18:03;;;;;;;8.63;2.80;;;;;;;2.49;100.00;95133.75;4988966;28;20039;-73
2022/02/02 06:20:28;;;;;;;6.43;2.88;;;;;;;2.59;100.00;95139.16;4987564;28;20042;-73
2022/02/02 06:23:18;;;;;;;9.30;3.10;;;;;;;2.54;100.00;95136.47;4993847;28;20096;-73
2022/02/02 06:25:48;;;;;;;10.18;2.72;;;;;;;2.65;100.00;95136.66;4993663;28;20050;-74
2022/02/02 06:28:27;;;;;;;8.80;3.25;;;;;;;2.59;100.00;95139.16;4988765;28;20054;-73
2022/02/02 06:30:58;;;;;;;11.10;3.50;;;;;;;2.51;100.00;95152.47;4989724;28;20038;-74
2022/02/02 06:33:40;;;;;;;13.32;4.05;;;;;;;2.68;100.00;95151.78;4990783;28;20081;-72
2022/02/02 06:36:10;;;;;;;6.82;3.05;;;;;;;2.78;100.00;95155.38;5001938;28;20049;-73
2022/02/02 06:38:41;;;;;;;9.82;3.75;;;;;;;2.83;100.00;95165.13;4970258;28;20135;-74
2022/02/02 06:41:08;;;;;;;17.52;4.32;;;;;;;2.74;100.00;95189.84;5003188;28;20042;-74
2022/02/02 06:43:34;;;;;;;14.65;3.25;;;;;;;2.82;100.00;95215.50;4995609;28;20046;-75
2022/02/02 06:46:02;;;;;;;10.52;3.85;;;;;;;2.75;100.00;95231.19;4988872;28;20411;-74
2022/02/02 06:48:30;;;;;;;15.15;3.80;;;;;;;2.75;100.00;95246.00;4991989;28;20050;-73
2022/02/02 06:51:13;;;;;;;11.30;3.33;;;;;;;2.52;100.00;95218.22;4992770;28;20034;-74
2022/02/02 06:54:03;;;;;;;14.52;3.97;;;;;;;2.45;100.00;95210.53;4978057;28;20050;-75
2022/02/02 07:04:39;;;;;;;19.50;3.78;;;;;;;2.51;100.00;95234.81;4988055;28;20050;-76
2022/02/02 07:07:36;;;;;;;16.83;3.22;;;;;;;2.45;100.00;95236.50;4995206;28;20073;-76
2022/02/02 07:13:08;;;;;;;12.07;3.28;;;;;;;2.44;100.00;95229.72;4985505;28;20065;-75
2022/02/02 07:20:54;;;;;;;16.95;3.15;;;;;;;2.40;100.00;95213.81;4990423;28;20038;-77
2022/02/02 07:33:41;;;;;;;14.63;2.70;;;;;;;2.42;100.00;95200.59;4989568;28;20504;-75
2022/02/02 07:36:14;;;;;;;13.68;2.35;;;;;;;2.43;100.00;95212.56;4983666;28;20093;-74
2022/02/02 07:39:07;;;;;;;18.17;2.47;;;;;;;2.48;100.00;95214.50;4987881;28;20045;-74
2022/02/02 07:41:37;;;;;;;11.00;2.40;;;;;;;2.41;100.00;95219.78;4991879;28;20058;-74
2022/02/02 07:44:12;;;;;;;14.73;2.75;;;;;;;2.38;100.00;95220.22;4991610;28;20038;-74
2022/02/02 07:46:43;;;;;;;22.48;2.60;;;;;;;2.35;100.00;95215.50;4990810;28;20117;-75
2022/02/02 07:49:11;;;;;;;7.65;2.05;;;;;;;2.52;100.00;95226.78;4991062;28;20049;-75
2022/02/02 07:51:38;;;;;;;8.88;2.10;;;;;;;2.48;100.00;95230.06;4992223;28;20122;-76
2022/02/02 07:54:07;;;;;;;14.55;2.67;;;;;;;2.52;100.00;95232.00;4998459;28;20038;-74
2022/02/02 07:56:41;;;;;;;6.88;2.40;;;;;;;2.58;100.00;95215.50;5000831;28;20054;-74
2022/02/02 07:59:21;;;;;;;11.60;2.50;;;;;;;2.48;100.00;95228.25;4999568;28;20034;-75
2022/02/02 08:01:50;;;;;;;13.48;2.40;;;;;;;2.58;100.00;95231.09;4990268;28;20061;-74
2022/02/02 08:04:17;;;;;;;7.13;2.63;;;;;;;2.54;100.00;95229.97;4992692;28;20046;-74
2022/02/02 08:06:49;;;;;;;10.75;2.63;;;;;;;2.52;100.00;95252.78;4998137;28;20531;-73
2022/02/02 08:09:24;;;;;;;12.65;3.30;;;;;;;2.53;100.00;95259.56;4989359;28;20047;-74
2022/02/02 08:11:52;;;;;;;15.63;2.97;;;;;;;2.61;100.00;95266.22;4987443;28;20078;-74
2022/02/02 08:14:18;;;;;;;10.40;2.63;;;;;;;2.75;100.00;95272.00;4991478;28;20416;-74
2022/02/02 08:16:44;;;;;;;16.98;3.47;;;;;;;2.72;100.00;95262.06;4989818;28;20189;-74
2022/02/02 08:19:10;;;;;;;12.82;2.75;;;;;;;2.72;100.00;95262.06;4991021;28;20528;-74
2022/02/02 08:21:35;;;;;;;16.30;3.10;;;;;;;2.74;100.00;95276.41;4990365;28;20043;-74
2022/02/02 08:24:01;;;;;;;11.00;2.85;;;;;;;2.79;100.00;95288.72;4990467;28;20045;-74
2022/02/02 08:26:26;;;;;;;10.77;2.92;;;;;;;2.80;100.00;95282.50;4997065;28;20125;-74
2022/02/02 08:28:56;;;;;;;13.70;2.70;;;;;;;2.72;100.00;95298.44;4990925;28;20077;-74
2022/02/02 08:31:24;;;;;;;16.33;2.85;;;;;;;2.71;100.00;95296.84;4991309;28;20062;-74
2022/02/02 08:33:52;;;;;;;15.07;3.20;;;;;;;2.70;100.00;95293.47;4989217;28;20515;-74
2022/02/02 08:36:19;;;;;;;22.63;3.22;;;;;;;2.75;99.81;95297.97;4990223;28;20070;-73
2022/02/02 08:38:55;;;;;;;15.00;2.83;;;;;;;2.75;99.63;95300.59;4990824;28;20117;-74
2022/02/02 08:41:30;;;;;;;13.50;2.47;;;;;;;2.75;99.13;95300.59;4989710;28;20042;-74
2022/02/02 08:44:01;;;;;;;18.65;3.50;;;;;;;2.76;99.56;95317.78;4989990;28;20501;-74
2022/02/02 08:46:33;;;;;;;14.90;3.08;;;;;;;2.85;99.25;95321.59;4990610;28;20561;-74
2022/02/02 08:49:00;;;;;;;20.35;2.92;;;;;;;2.87;97.80;95316.97;4979831;28;20053;-74
2022/02/02 08:51:31;;;;;;;12.00;2.67;;;;;;;2.94;97.52;95328.06;5006769;28;20044;-74
2022/02/02 08:59:01;;;;;;;11.15;3.03;;;;;;;3.09;94.92;95314.59;4985854;28;20121;-73
2022/02/02 09:01:30;;;;;;;22.17;3.45;;;;;;;3.17;94.38;95315.28;4989566;28;20112;-74
2022/02/02 09:06:40;;;;;;;18.00;2.77;;;;;;;3.55;94.40;95301.78;4988755;28;20038;-75
2022/02/02 09:25:16;;;;;;;12.43;2.70;;;;;;;3.90;93.19;95333.94;4989394;28;20456;-74
2022/02/02 09:33:51;;;;;;;19.20;3.70;;;;;;;3.86;93.22;95348.44;4988872;28;20049;-77
2022/02/02 09:36:17;;;;;;;13.05;2.42;;;;;;;3.85;94.22;95367.69;4990502;28;20054;-75
2022/02/02 09:38:43;;;;;;;16.02;2.97;;;;;;;3.87;94.53;95357.84;4988158;28;20062;-75
2022/02/02 09:43:45;;;;;;;21.35;3.00;;;;;;;3.96;94.03;95369.47;4988881;28;20654;-77
2022/02/02 09:46:14;;;;;;;20.25;3.42;;;;;;;4.10;93.22;95362.19;4987225;28;20041;-74
2022/02/02 09:48:47;;;;;;;14.00;3.35;;;;;;;4.25;92.44;95383.31;4988740;28;20046;-76
2022/02/02 09:51:20;;;;;;;16.42;3.45;;;;;;;4.40;93.04;95372.38;4984726;28;20417;-76
2022/02/02 09:53:56;;;;;;;17.38;3.15;;;;;;;4.37;92.42;95387.69;4989303;28;20038;-76
2022/02/02 10:15:15;;;;;;;13.30;2.53;;;;;;;4.04;94.30;95412.56;4987422;28;20120;-75
2022/02/02 10:17:41;;;;;;;12.85;3.00;;;;;;;4.03;93.90;95426.63;4988565;28;20046;-75
2022/02/02 10:20:21;;;;;;;19.58;3.42;;;;;;;3.95;96.16;95415.56;4989615;28;20049;-75
2022/02/02 10:22:48;;;;;;;10.90;2.90;;;;;;;3.89;95.58;95426.88;4985287;28;20416;-74
2022/02/02 10:25:31;;;;;;;15.95;3.05;;;;;;;3.76;96.76;95432.31;4983796;28;20649;-75
2022/02/02 10:28:05;;;;;;;19.88;3.63;;;;;;;3.80;95.59;95430.84;4990141;28;20042;-74
2022/02/02 10:30:32;;;;;;;13.10;3.33;;;;;;;3.83;95.84;95414.78;4989036;28;20501;-73
2022/02/02 10:32:58;;;;;;;18.20;3.50;;;;;;;3.71;96.50;95424.41;4988691;28;20606;-74
2022/02/02 10:35:31;;;;;;;13.52;3.45;;;;;;;3.85;95.21;95420.56;4987793;28;20137;-74
2022/02/02 10:37:58;;;;;;;15.57;3.20;;;;;;;3.73;94.84;95424.97;4987808;28;20034;-74
2022/02/02 10:40:54;;;;;;;13.60;2.90;;;;;;;3.83;92.68;95417.38;4988793;28;20493;-73
2022/02/02 10:43:38;;;;;;;14.57;3.50;;;;;;;3.95;93.47;95431.19;4991296;28;20319;-74
2022/02/02 10:46:07;;;;;;;20.98;3.30;;;;;;;3.95;92.96;95415.56;4980366;28;20038;-73
2022/02/02 10:48:42;;;;;;;19.90;3.55;;;;;;;3.82;94.30;95410.56;4988272;28;20050;-78
2022/02/02 10:51:19;;;;;;;18.40;4.60;;;;;;;3.99;94.72;95416.69;4983443;28;20093;-76
2022/02/02 10:56:37;;;;;;;13.32;3.28;;;;;;;3.96;93.18;95422.31;4991196;28;20068;-77
2022/02/02 11:07:11;;;;;;;18.60;3.05;;;;;;;4.17;91.52;95433.19;4988856;28;20053;-76
2022/02/02 11:09:37;;;;;;;19.27;3.45;;;;;;;4.27;91.49;95443.78;4986968;28;20038;-76
2022/02/02 11:12:04;;;;;;;19.13;3.10;;;;;;;4.19;91.03;95456.38;4988912;28;20105;-74
2022/02/02 11:15:17;;;;;;;14.88;3.03;;;;;;;4.06;91.59;95462.63;4988804;28;20038;-75
2022/02/02 11:17:46;;;;;;;24.02;3.78;;;;;;;4.02;93.22;95440.66;4973007;28;20047;-76
2022/02/02 11:20:18;;;;;;;20.75;3.15;;;;;;;4.06;91.86;95447.00;4998706;28;20077;-75
2022/02/02 11:22:54;;;;;;;19.17;3.30;;;;;;;4.05;92.91;95450.63;4975581;28;20492;-75
2022/02/02 11:25:23;;;;;;;18.33;3.42;;;;;;;4.01;93.11;95454.69;4988055;28;20089;-73
2022/02/02 11:27:51;;;;;;;14.85;3.13;;;;;;;4.03;92.08;95447.47;4984773;28;20046;-74
2022/02/02 11:30:22;;;;;;;15.93;3.75;;;;;;;4.10;91.22;95448.91;4988206;28;20674;-74
2022/02/02 11:32:52;;;;;;;17.55;3.50;;;;;;;4.19;91.36;95441.53;4989099;28;20042;-76
2022/02/02 11:35:30;;;;;;;19.55;3.33;;;;;;;4.18;91.15;95439.97;4990801;28;20492;-75
2022/02/02 11:38:01;;;;;;;21.63;3.60;;;;;;;4.20;88.83;95445.72;4989817;28;20519;-74
2022/02/02 11:40:31;;;;;;;19.17;3.22;;;;;;;4.33;89.79;95453.28;4989443;28;20050;-77
2022/02/02 11:43:08;;;;;;;26.00;3.75;;;;;;;4.42;88.92;95430.25;4992763;28;20039;-76
2022/02/02 11:45:57;;;;;;;21.40;4.03;;;;;;;4.55;90.22;95439.63;5008689;28;20129;-78
2022/02/02 11:48:44;;;;;;;11.85;2.97;;;;;;;4.51;88.16;95438.50;5004387;28;20045;-77
2022/02/02 11:51:10;;;;;;;15.70;2.97;;;;;;;4.56;87.60;95441.22;4987951;28;20038;-75
2022/02/02 11:54:02;;;;;;;28.20;3.97;;;;;;;4.74;86.31;95436.81;4990615;28;20034;-75
2022/02/02 11:56:30;;;;;;;17.35;3.72;;;;;;;4.77;86.11;95441.56;4990088;28;20066;-75
2022/02/02 11:58:56;;;;;;;20.23;3.83;;;;;;;4.88;87.34;95432.91;4989019;28;20046;-75
2022/02/02 12:01:41;;;;;;;18.23;3.63;;;;;;;4.92;86.07;95436.63;4991562;28;20042;-75
2022/02/02 12:04:28;;;;;;;21.20;3.30;;;;;;;5.10;87.77;95434.81;4984123;28;20038;-74
2022/02/02 12:09:35;;;;;;;21.88;4.18;;;;;;;4.93;87.02;95440.81;4985817;28;20155;-75
2022/02/02 12:47:59;;;;;;;14.43;2.92;;;;;;;6.01;77.34;95465.19;4981826;28;20057;-73
2022/02/02 12:53:34;;;;;;;15.57;2.90;;;;;;;6.20;77.19;95463.06;4990034;28;20046;-73
2022/02/02 12:56:27;;;;;;;13.63;2.83;;;;;;;6.73;74.03;95448.50;4983045;28;20035;-75
2022/02/02 12:59:55;;;;;;;11.77;3.10;;;;;;;7.33;72.69;95438.06;4989735;28;20035;-75
2022/02/02 13:02:04;;;;;;;14.05;2.97;;;;;;;6.87;74.66;95451.53;4991150;28;20058;-74
2022/02/02 13:04:30;;;;;;;16.70;2.90;;;;;;;6.32;76.77;95452.50;4989014;28;20042;-75
2022/02/02 13:07:07;;;;;;;15.35;2.10;;;;;;;6.33;76.79;95467.94;4987733;28;20092;-75
2022/02/02 13:09:32;;;;;;;18.45;3.67;;;;;;;5.83;76.48;95447.91;4989332;28;20042;-74
2022/02/02 13:12:16;;;;;;;14.85;2.92;;;;;;;5.28;77.92;95465.91;5005730;28;20038;-75
2022/02/02 13:15:00;;;;;;;20.10;3.00;;;;;;;5.08;80.54;95452.53;4990779;28;20707;-75
2022/02/02 13:17:26;;;;;;;17.10;3.30;;;;;;;5.13;81.69;95470.88;4990264;28;20664;-75
2022/02/02 13:20:00;;;;;;;14.18;3.28;;;;;;;4.94;82.45;95478.91;4990190;28;20053;-75
2022/02/02 13:22:29;;;;;;;15.40;3.42;;;;;;;4.90;82.56;95483.03;4990300;28;20042;-75
2022/02/02 13:24:55;;;;;;;17.08;3.30;;;;;;;4.93;83.92;95482.53;4989065;28;20042;-75
2022/02/02 13:27:22;;;;;;;23.77;3.42;;;;;;;4.76;83.80;95499.97;4987194;28;20496;-75
2022/02/02 13:29:52;;;;;;;17.52;3.42;;;;;;;4.77;84.33;95493.72;4990213;28;20046;-75
2022/02/02 13:32:28;;;;;;;15.30;3.00;;;;;;;4.76;82.77;95507.78;4990598;28;20535;-75
2022/02/02 14:26:09;;;;;;;16.95;3.40;;;;;;;3.70;94.37;95623.25;4988369;28;20511;-75
2022/02/02 14:31:23;;;;;;;12.65;2.65;;;;;;;3.70;94.66;95631.03;4991274;28;20056;-75
2022/02/02 14:33:52;;;;;;;9.15;2.22;;;;;;;3.63;93.43;95637.16;4988154;28;22392;-76
2022/02/02 14:36:22;;;;;;;16.58;2.65;;;;;;;3.63;93.56;95631.94;4997394;28;20050;-75
2022/02/02 14:38:55;;;;;;;11.02;2.60;;;;;;;3.61;92.97;95639.16;4987976;28;20045;-75
2022/02/02 14:41:44;;;;;;;8.85;2.20;;;;;;;3.79;92.79;95640.09;4994343;28;20046;-75
2022/02/02 14:44:17;;;;;;;16.88;2.95;;;;;;;3.87;92.10;95641.63;4993869;28;20097;-77
2022/02/02 14:46:57;;;;;;;12.43;2.83;;;;;;;3.89;90.42;95655.97;4995973;28;20502;-75
2022/02/02 14:52:25;;;;;;;9.98;2.40;;;;;;;4.05;90.37;95659.78;4980227;28;20062;-77
2022/02/02 15:27:20;;;;;;;13.90;3.03;;;;;;;3.66;93.60;95734.00;4978677;28;20464;-77
2022/02/02 15:32:17;;;;;;;22.02;3.42;;;;;;;3.79;93.32;95728.63;4991635;28;20034;-77
2022/02/02 15:34:47;;;;;;;15.85;3.88;;;;;;;3.78;93.38;95724.44;4982623;28;20039;-76
2022/02/02 15:58:57;;;;;;;11.90;2.55;;;;;;;4.20;81.97;95739.28;5001589;28;20053;-77
2022/02/02 16:04:10;;;;;;;13.00;3.05;;;;;;;4.25;78.39;95742.81;5004953;28;20044;-77
2022/02/02 16:06:36;;;;;;;11.68;3.10;;;;;;;4.30;79.84;95755.19;5000720;28;20046;-76
2022/02/02 16:11:39;;;;;;;12.18;2.80;;;;;;;4.17;78.50;95763.97;4993651;28;20047;-76
2022/02/02 16:14:07;;;;;;;13.20;2.92;;;;;;;4.15;77.71;95768.59;4991300;28;20057;-76
2022/02/02 16:19:16;;;;;;;14.32;2.90;;;;;;;4.06;79.73;95772.53;4986640;28;20042;-76
2022/02/02 16:37:41;;;;;;;17.10;2.97;;;;;;;3.74;80.21;95772.75;5004938;28;20054;-79
2022/02/02 16:40:11;;;;;;;19.52;3.33;;;;;;;3.62;79.85;95781.28;5000736;28;20038;-78
2022/02/02 16:43:20;;;;;;;12.25;2.88;;;;;;;3.59;80.71;95781.72;5001228;28;20081;-79
2022/02/02 16:45:28;;;;;;;13.85;3.08;;;;;;;3.53;81.07;95785.19;4985453;28;20062;-78
2022/02/02 16:47:55;;;;;;;15.25;3.10;;;;;;;3.52;81.76;95790.63;5003462;28;20144;-81
2022/02/02 16:50:24;;;;;;;18.52;3.78;;;;;;;3.63;81.04;95793.31;5005309;28;20089;-79
2022/02/02 16:52:54;;;;;;;12.13;2.70;;;;;;;3.71;80.83;95783.59;5009091;28;20050;-78
2022/02/02 16:58:08;;;;;;;18.83;4.22;;;;;;;3.72;80.53;95795.59;5004490;28;20065;-79
2022/02/02 17:30:47;;;;;;;14.15;3.30;;;;;;;3.52;84.49;95837.44;4993948;28;20460;-77
2022/02/02 17:33:24;;;;;;;12.32;3.30;;;;;;;3.28;86.38;95842.50;4987504;28;20047;-76
2022/02/02 17:38:34;;;;;;;21.52;3.47;;;;;;;3.15;87.85;95848.63;4986613;28;20463;-76
2022/02/02 17:41:14;;;;;;;19.77;4.78;;;;;;;3.15;88.63;95853.81;4992556;28;20038;-76
2022/02/02 17:58:22;;;;;;;14.43;4.20;;;;;;;3.28;91.50;95873.72;4989656;28;19928;-77
2022/02/02 18:19:22;;;;;;;16.20;3.53;;;;;;;2.94;93.99;95889.59;4993726;28;20038;-79
2022/02/02 18:21:48;;;;;;;14.70;3.50;;;;;;;3.02;93.71;95898.13;4993840;28;20053;-79
2022/02/02 18:24:48;;;;;;;19.90;4.00;;;;;;;3.04;93.85;95891.69;4994032;28;20074;-78
2022/02/02 18:27:06;;;;;;;16.80;4.03;;;;;;;2.99;93.89;95901.94;4991909;28;20467;-78
2022/02/02 18:29:46;;;;;;;13.98;3.40;;;;;;;2.86;94.13;95900.25;4991232;28;20043;-80
2022/02/02 18:32:30;;;;;;;26.77;3.95;;;;;;;2.93;94.36;95907.97;4995568;28;20086;-78
2022/02/02 18:35:00;;;;;;;16.50;3.95;;;;;;;2.97;94.42;95916.16;4995391;28;20109;-78
2022/02/02 18:48:21;;;;;;;17.38;4.40;;;;;;;3.03;95.12;95933.50;5006853;28;20092;-80
2022/02/02 18:51:03;;;;;;;13.50;4.05;;;;;;;3.05;95.03;95921.13;5003071;28;20481;-77
2022/02/02 18:59:12;;;;;;;9.15;3.50;;;;;;;3.20;95.08;95963.19;4989741;28;20050;-74
2022/02/02 19:55:59;;;;;;;14.63;4.20;;;;;;;2.27;100.00;96023.41;4982675;28;20120;-75
2022/02/02 20:11:30;;;;;;;14.40;5.47;;;;;;;2.18;100.00;96036.63;4994137;28;20115;-76
2022/02/02 20:13:56;;;;;;;16.73;6.03;;;;;;;2.08;100.00;96036.25;4989763;28;20038;-75
2022/02/02 20:16:22;;;;;;;20.73;5.80;;;;;;;2.11;100.00;96046.22;4981203;28;20062;-75
2022/02/02 20:18:50;;;;;;;19.30;6.15;;;;;;;2.09;100.00;96053.41;4995498;28;20088;-74
2022/02/02 20:21:20;;;;;;;13.27;4.80;;;;;;;2.23;100.00;96049.00;4984086;28;20059;-75
2022/02/02 20:23:48;;;;;;;18.83;5.60;;;;;;;2.19;100.00;96047.81;4979828;28;20085;-76
2022/02/02 20:26:17;;;;;;;17.75;5.40;;;;;;;2.21;100.00;96051.81;5003456;28;20066;-76
2022/02/02 20:28:44;;;;;;;19.27;5.55;;;;;;;2.15;100.00;96047.41;4985545;28;20108;-76
2022/02/02 20:31:09;;;;;;;19.40;4.90;;;;;;;2.13;100.00;96039.03;4996961;28;20061;-76
2022/02/02 20:33:35;;;;;;;17.02;5.25;;;;;;;2.25;100.00;96040.00;4985776;28;20058;-76
2022/02/02 20:36:01;;;;;;;13.00;5.05;;;;;;;2.32;100.00;96036.59;4987147;28;20038;-76
2022/02/02 20:38:27;;;;;;;23.15;5.30;;;;;;;2.35;100.00;96033.59;5012445;28;20046;-76
2022/02/02 20:40:52;;;;;;;23.30;5.22;;;;;;;2.50;100.00;96041.97;4987624;28;20038;-75
2022/02/02 20:43:32;;;;;;;20.65;5.22;;;;;;;2.50;100.00;96044.56;4993885;28;20050;-74
2022/02/02 20:46:24;;;;;;;13.98;4.63;;;;;;;2.33;100.00;96053.75;4990415;28;20053;-74
2022/02/02 21:05:31;;;;;;;13.00;4.75;;;;;;;2.41;100.00;96061.34;4989867;28;20134;-74
2022/02/02 21:10:43;;;;;;;13.73;4.60;;;;;;;2.58;100.00;96067.69;4988140;28;20046;-74
2022/02/02 21:15:53;;;;;;;14.93;5.03;;;;;;;2.62;100.00;96070.69;4988882;28;20050;-76
2022/02/02 21:18:22;;;;;;;16.27;4.70;;;;;;;2.53;100.00;96062.31;4986651;28;20058;-76
2022/02/02 21:21:34;;;;;;;15.48;4.85;;;;;;;2.66;100.00;96060.66;4984297;28;20039;-75
2022/02/02 21:24:05;;;;;;;15.65;4.68;;;;;;;2.52;100.00;96078.91;4986039;28;20760;-75
2022/02/02 21:29:00;;;;;;;18.95;5.43;;;;;;;2.56;100.00;96095.69;4979720;28;20057;-75
2022/02/02 21:31:26;;;;;;;15.25;5.35;;;;;;;2.49;100.00;96109.72;5003209;28;20055;-74
2022/02/02 21:33:51;;;;;;;17.27;5.22;;;;;;;2.50;100.00;96106.09;4984997;28;20038;-75
2022/02/02 21:36:18;;;;;;;13.90;5.10;;;;;;;2.46;100.00;96110.09;4974360;28;20059;-75
2022/02/02 21:39:03;;;;;;;15.75;6.18;;;;;;;2.46;100.00;96100.50;4977266;28;20050;-74
2022/02/02 21:41:35;;;;;;;16.15;5.72;;;;;;;2.52;100.00;96099.69;4990872;28;20065;-75
2022/02/02 21:44:04;;;;;;;23.80;6.13;;;;;;;2.62;100.00;96103.69;4992692;28;20043;-74
2022/02/02 21:46:30;;;;;;;15.93;5.18;;;;;;;2.71;100.00;96097.25;4996287;28;20073;-74
2022/02/02 21:48:59;;;;;;;17.08;5.55;;;;;;;2.74;100.00;96099.44;5003897;28;20046;-75
2022/02/02 21:51:29;;;;;;;16.15;5.70;;;;;;;2.70;100.00;96100.84;4982349;28;20058;-74
2022/02/02 21:53:55;;;;;;;13.95;5.45;;;;;;;2.74;100.00;96099.44;4985790;28;20097;-74
2022/02/02 21:56:21;;;;;;;15.63;6.43;;;;;;;2.48;100.00;96114.09;4998072;28;20468;-74
2022/02/02 21:58:47;;;;;;;18.35;5.85;;;;;;;2.58;100.00;96114.47;4991490;28;20514;-74
2022/02/02 22:01:14;;;;;;;14.27;6.30;;;;;;;2.58;100.00;96119.66;4993586;28;20062;-74
2022/02/02 22:03:39;;;;;;;18.10;6.85;;;;;;;2.56;100.00;96111.28;4994409;28;20042;-75
2022/02/02 22:06:05;;;;;;;16.90;6.38;;;;;;;2.53;100.00;96116.88;5001499;28;20068;-75
2022/02/02 22:08:30;;;;;;;15.35;5.53;;;;;;;2.51;100.00;96116.28;5001339;28;20447;-74
2022/02/02 22:10:56;;;;;;;11.77;4.80;;;;;;;2.48;100.00;96114.09;4991791;28;20168;-75
2022/02/02 22:13:28;;;;;;;14.98;6.20;;;;;;;2.42;100.00;96109.72;4989953;28;20397;-75
2022/02/02 22:15:55;;;;;;;13.27;4.55;;;;;;;2.38;100.00;96105.91;5000272;28;20405;-74
2022/02/02 22:18:23;;;;;;;15.60;5.03;;;;;;;2.34;100.00;96102.94;4986960;28;20493;-74
2022/02/02 22:20:49;;;;;;;13.55;5.50;;;;;;;2.17;100.00;96102.56;4991806;28;20037;-73
2022/02/02 22:23:16;;;;;;;14.07;4.85;;;;;;;2.22;100.00;96099.34;4984991;28;20046;-75
2022/02/02 22:25:42;;;;;;;13.48;4.25;;;;;;;2.22;100.00;96100.13;4982737;28;20045;-74
2022/02/02 22:28:07;;;;;;;14.38;4.45;;;;;;;2.17;100.00;96110.34;4978566;28;20261;-74
2022/02/02 22:30:33;;;;;;;15.48;5.00;;;;;;;2.09;100.00;96115.72;4996633;28;20112;-75
2022/02/02 22:32:59;;;;;;;12.20;4.80;;;;;;;2.06;100.00;96110.94;4998597;28;20512;-75
2022/02/02 22:35:24;;;;;;;13.93;4.35;;;;;;;1.95;100.00;96108.94;4979915;28;20504;-74
2022/02/02 22:37:50;;;;;;;14.05;4.53;;;;;;;1.79;100.00;96110.94;4981477;28;20112;-74
2022/02/02 22:40:22;;;;;;;15.00;5.18;;;;;;;1.77;100.00;96112.94;4988170;28;20112;-74
2022/02/02 22:42:47;;;;;;;11.90;4.72;;;;;;;1.77;100.00;96119.91;4985549;28;20570;-74
2022/02/02 22:45:14;;;;;;;18.30;4.60;;;;;;;1.70;100.00;96112.13;4982107;28;20049;-74
2022/02/02 22:47:43;;;;;;;12.93;4.70;;;;;;;1.53;100.00;96117.69;4986603;28;20077;-74
2022/02/02 22:50:10;;;;;;;15.25;4.82;;;;;;;1.56;100.00;96117.28;4989449;28;20741;-77
2022/02/02 22:52:35;;;;;;;21.83;5.28;;;;;;;1.43;100.00;96117.28;4987251;28;20059;-74